Time;durP1;ratioP1;P1;durP2;ratioP2;P2;SDS_P1;SDS_P2;PMS_P1;PMS_P2;Temp;Humidity;BMP_temperature;BMP_pressure;BME280_temperature;BME280_humidity;BME280_pressure;Samples;Min_cycle;Max_cycle;Signal;HPM_P1;HPM_P2
2021/04/09 00:01:31;;;;;;;17.20;9.38;;;4.10;77.00;;;;;;4945742;29;20027;-84
2021/04/09 00:03:57;;;;;;;21.73;9.95;;;4.10;77.00;;;;;;4948764;28;20038;-84
2021/04/09 00:06:23;;;;;;;19.70;10.25;;;4.10;77.00;;;;;;4942424;28;20502;-84
2021/04/09 00:08:49;;;;;;;18.88;10.52;;;4.10;77.10;;;;;;4932759;28;20390;-84
2021/04/09 00:11:15;;;;;;;20.88;10.93;;;4.00;77.20;;;;;;4936943;29;20540;-85
2021/04/09 00:13:41;;;;;;;19.17;10.68;;;4.00;77.20;;;;;;4938742;28;20122;-84
2021/04/09 00:16:06;;;;;;;17.05;10.60;;;4.00;77.30;;;;;;4939018;28;20038;-84
2021/04/09 00:18:32;;;;;;;17.77;11.23;;;4.00;77.40;;;;;;4943916;28;20024;-84
2021/04/09 00:20:58;;;;;;;16.65;10.00;;;4.00;77.50;;;;;;4938547;28;20042;-84
2021/04/09 00:23:23;;;;;;;15.27;9.80;;;4.00;77.50;;;;;;4948708;29;20101;-84
2021/04/09 00:25:49;;;;;;;18.70;9.75;;;3.90;77.50;;;;;;4943135;29;20030;-84
2021/04/09 00:28:14;;;;;;;17.60;9.68;;;3.90;77.50;;;;;;4946128;28;20027;-84
2021/04/09 00:30:40;;;;;;;19.70;9.73;;;3.90;77.60;;;;;;4943785;28;20078;-84
2021/04/09 00:33:06;;;;;;;17.83;11.38;;;4.00;77.60;;;;;;4947308;29;20043;-84
2021/04/09 00:35:31;;;;;;;17.52;9.98;;;4.00;77.50;;;;;;4935718;29;20054;-84
2021/04/09 00:37:57;;;;;;;17.05;10.38;;;4.00;77.50;;;;;;4945776;28;20114;-84
2021/04/09 00:40:23;;;;;;;20.42;11.32;;;4.10;77.50;;;;;;4946821;28;20121;-84
2021/04/09 00:42:50;;;;;;;18.25;10.80;;;4.10;77.50;;;;;;4948432;28;20073;-84
2021/04/09 00:45:16;;;;;;;17.63;9.80;;;4.10;77.40;;;;;;4938720;28;20032;-84
2021/04/09 00:47:44;;;;;;;17.25;10.02;;;4.10;77.40;;;;;;4937902;28;20107;-84
2021/04/09 00:50:11;;;;;;;17.63;10.77;;;4.10;77.30;;;;;;4947207;28;20118;-84
2021/04/09 00:52:38;;;;;;;16.58;10.57;;;4.10;77.30;;;;;;4944782;28;20549;-84
2021/04/09 00:55:06;;;;;;;16.77;10.00;;;4.10;77.30;;;;;;4950357;28;20364;-84
2021/04/09 00:57:32;;;;;;;20.55;10.82;;;4.10;77.30;;;;;;4937541;28;20036;-84
2021/04/09 00:59:59;;;;;;;18.08;10.23;;;4.10;77.30;;;;;;4945427;28;20267;-84
2021/04/09 01:02:25;;;;;;;19.92;11.27;;;4.10;77.40;;;;;;4948859;29;20024;-85
2021/04/09 01:04:51;;;;;;;19.20;10.80;;;4.10;77.50;;;;;;4946397;28;20509;-85
2021/04/09 01:07:17;;;;;;;19.40;11.07;;;4.00;77.50;;;;;;4945166;29;20510;-84
2021/04/09 01:09:43;;;;;;;20.45;11.60;;;4.00;77.60;;;;;;4940248;28;20030;-83
2021/04/09 01:12:09;;;;;;;16.42;10.77;;;4.00;77.60;;;;;;4947990;28;20027;-84
2021/04/09 01:14:36;;;;;;;17.58;10.95;;;4.00;77.70;;;;;;4949068;28;20039;-84
2021/04/09 01:17:13;;;;;;;17.08;10.30;;;4.00;77.80;;;;;;4940386;29;20399;-84
2021/04/09 01:20:16;;;;;;;16.48;10.27;;;4.00;77.80;;;;;;4945952;29;20050;-84
2021/04/09 01:23:05;;;;;;;15.35;10.40;;;4.00;77.80;;;;;;4932592;29;20077;-84
2021/04/09 01:26:03;;;;;;;19.77;11.20;;;4.00;77.80;;;;;;4933810;28;20043;-84
2021/04/09 01:28:41;;;;;;;22.27;11.70;;;4.00;77.80;;;;;;4942628;28;20116;-84
2021/04/09 01:31:45;;;;;;;23.08;10.35;;;4.00;78.00;;;;;;4938830;28;20059;-84
2021/04/09 01:34:12;;;;;;;21.50;10.95;;;4.00;77.90;;;;;;4947136;29;20039;-85
2021/04/09 01:37:05;;;;;;;19.10;10.90;;;4.00;78.00;;;;;;4947349;29;20027;-84
2021/04/09 01:39:52;;;;;;;24.42;11.80;;;4.00;78.10;;;;;;4942355;28;20630;-84
2021/04/09 01:42:19;;;;;;;22.60;11.60;;;4.00;78.30;;;;;;4940463;29;20322;-84
2021/04/09 01:44:50;;;;;;;22.30;11.00;;;4.00;78.40;;;;;;4935371;29;20036;-84
2021/04/09 01:47:16;;;;;;;22.75;11.15;;;4.10;78.50;;;;;;4942820;28;20027;-84
2021/04/09 01:49:42;;;;;;;21.13;11.50;;;4.10;78.50;;;;;;4934596;28;20051;-84
2021/04/09 01:52:10;;;;;;;21.98;11.40;;;4.10;78.50;;;;;;4938863;29;20053;-84
2021/04/09 01:54:38;;;;;;;26.92;12.70;;;4.10;78.40;;;;;;4932867;28;20042;-85
2021/04/09 01:57:06;;;;;;;22.13;11.68;;;4.10;78.40;;;;;;4935838;29;20036;-84
2021/04/09 01:59:34;;;;;;;23.38;11.65;;;4.10;78.40;;;;;;4948323;29;20039;-84
2021/04/09 02:02:01;;;;;;;18.48;11.30;;;4.10;79.00;;;;;;4947893;29;20446;-84
2021/04/09 02:04:28;;;;;;;21.70;11.48;;;4.10;78.40;;;;;;4960127;28;20089;-84
2021/04/09 02:06:55;;;;;;;25.55;12.57;;;4.10;78.40;;;;;;4944758;29;20110;-84
2021/04/09 02:09:22;;;;;;;22.73;12.43;;;4.10;78.50;;;;;;4939034;28;20360;-84
2021/04/09 02:11:49;;;;;;;22.67;12.88;;;4.00;78.60;;;;;;4934408;28;20110;-84
2021/04/09 02:14:15;;;;;;;25.52;12.43;;;4.00;78.70;;;;;;4938250;28;20031;-84
2021/04/09 02:16:43;;;;;;;24.33;12.15;;;4.00;78.80;;;;;;4934530;28;20062;-84
2021/04/09 02:19:09;;;;;;;23.50;12.32;;;4.00;78.90;;;;;;4945687;29;20073;-84
2021/04/09 02:21:36;;;;;;;21.65;12.32;;;4.00;79.00;;;;;;4948750;29;20023;-84
2021/04/09 02:24:07;;;;;;;24.40;12.10;;;4.00;79.10;;;;;;4934467;28;20040;-84
2021/04/09 02:26:33;;;;;;;24.75;12.57;;;4.00;79.20;;;;;;4944849;29;20035;-85
2021/04/09 02:28:59;;;;;;;24.45;12.88;;;4.00;79.30;;;;;;4948078;29;20050;-84
2021/04/09 02:31:24;;;;;;;24.80;13.52;;;4.00;79.30;;;;;;4939709;28;20031;-84
2021/04/09 02:33:50;;;;;;;25.52;12.82;;;4.00;79.30;;;;;;4938562;29;20403;-84
2021/04/09 02:36:20;;;;;;;26.90;14.18;;;4.10;79.40;;;;;;4934799;29;20369;-84
2021/04/09 02:38:50;;;;;;;20.15;11.90;;;4.10;79.40;;;;;;4945304;28;20032;-84
2021/04/09 02:41:18;;;;;;;20.60;11.38;;;4.10;79.30;;;;;;4949241;28;20047;-84
2021/04/09 02:43:44;;;;;;;24.85;11.45;;;4.10;79.30;;;;;;4945966;28;20525;-84
2021/04/09 02:46:15;;;;;;;21.60;11.80;;;4.20;79.30;;;;;;4944749;28;20114;-84
2021/04/09 02:48:52;;;;;;;26.20;10.68;;;4.20;79.30;;;;;;4939320;29;20050;-84
2021/04/09 02:51:20;;;;;;;19.90;11.18;;;4.20;79.20;;;;;;4949918;28;20034;-84
2021/04/09 02:53:48;;;;;;;22.45;10.75;;;4.30;79.20;;;;;;4951929;28;20035;-84
2021/04/09 02:56:14;;;;;;;25.77;11.52;;;4.30;79.00;;;;;;4949570;28;20085;-84
2021/04/09 02:58:42;;;;;;;23.45;11.75;;;4.40;78.90;;;;;;4950245;28;20157;-85
2021/04/09 03:01:08;;;;;;;22.75;12.13;;;4.40;78.90;;;;;;4948255;28;20115;-84
2021/04/09 03:03:36;;;;;;;20.60;11.18;;;4.50;78.80;;;;;;4941677;29;20085;-85
2021/04/09 03:06:04;;;;;;;23.27;11.27;;;4.50;78.70;;;;;;4944140;28;20035;-84
2021/04/09 03:08:30;;;;;;;17.58;10.52;;;4.50;79.20;;;;;;4944181;28;20128;-84
2021/04/09 03:10:56;;;;;;;23.05;11.23;;;4.60;78.60;;;;;;4946167;28;20328;-84
2021/04/09 03:13:21;;;;;;;25.98;10.45;;;4.60;78.50;;;;;;4942152;28;20111;-84
2021/04/09 03:15:52;;;;;;;18.77;9.85;;;4.60;78.40;;;;;;4945503;28;20024;-84
2021/04/09 03:18:19;;;;;;;19.08;9.88;;;4.60;79.00;;;;;;4948787;29;20097;-84
2021/04/09 03:20:45;;;;;;;18.08;8.90;;;4.60;78.30;;;;;;4945967;28;20031;-85
2021/04/09 03:23:11;;;;;;;19.38;10.00;;;4.60;78.30;;;;;;4949272;29;20047;-84
2021/04/09 03:25:36;;;;;;;17.13;9.20;;;4.60;78.30;;;;;;4949476;28;20032;-85
2021/04/09 03:28:04;;;;;;;14.65;9.20;;;4.70;78.20;;;;;;4943643;28;20031;-84
2021/04/09 03:30:30;;;;;;;15.85;9.90;;;4.70;78.20;;;;;;4944829;29;20380;-84
2021/04/09 03:32:55;;;;;;;16.33;9.57;;;4.80;78.00;;;;;;4939237;28;20070;-85
2021/04/09 03:35:21;;;;;;;18.67;9.50;;;4.80;77.90;;;;;;4943859;28;20036;-84
2021/04/09 03:37:48;;;;;;;20.50;10.38;;;4.80;77.80;;;;;;4935089;29;20027;-84
2021/04/09 03:40:16;;;;;;;17.38;9.85;;;4.80;77.60;;;;;;4940058;29;20039;-84
2021/04/09 03:42:41;;;;;;;15.75;9.63;;;4.90;77.50;;;;;;4937404;28;20073;-85
2021/04/09 03:45:08;;;;;;;16.85;9.32;;;4.90;77.30;;;;;;4950632;29;20035;-84
2021/04/09 03:47:34;;;;;;;20.65;9.63;;;4.90;77.20;;;;;;4937049;29;20031;-84
2021/04/09 03:50:00;;;;;;;15.93;9.27;;;5.00;77.00;;;;;;4940260;28;20058;-84
2021/04/09 03:52:25;;;;;;;17.77;9.82;;;5.00;76.80;;;;;;4934712;28;20395;-84
2021/04/09 03:54:51;;;;;;;16.85;8.88;;;5.00;76.70;;;;;;4948124;28;20023;-85
2021/04/09 03:57:17;;;;;;;20.27;9.95;;;5.00;76.70;;;;;;4946927;29;20487;-84
2021/04/09 03:59:42;;;;;;;15.93;8.90;;;5.00;76.70;;;;;;4946573;28;20126;-84
2021/04/09 04:02:08;;;;;;;17.42;10.27;;;5.00;76.70;;;;;;4950294;28;20024;-84
2021/04/09 04:04:33;;;;;;;20.20;9.65;;;4.90;76.50;;;;;;4945410;29;20142;-84
2021/04/09 04:06:59;;;;;;;15.15;9.50;;;5.00;76.60;;;;;;4950534;29;20019;-84
2021/04/09 04:09:24;;;;;;;20.85;9.38;;;4.90;76.60;;;;;;4940756;29;20458;-84
2021/04/09 04:11:50;;;;;;;19.92;9.52;;;4.90;76.50;;;;;;4939074;28;20027;-84
2021/04/09 04:14:15;;;;;;;18.27;9.10;;;5.00;76.60;;;;;;4943855;28;20126;-84
2021/04/09 04:16:41;;;;;;;16.38;9.07;;;4.90;76.50;;;;;;4945230;28;20115;-85
2021/04/09 04:19:07;;;;;;;19.85;9.55;;;4.90;76.60;;;;;;4943696;29;20042;-84
2021/04/09 04:21:32;;;;;;;17.40;9.50;;;4.90;76.50;;;;;;4935256;28;20023;-84
2021/04/09 04:23:58;;;;;;;19.33;9.57;;;4.90;77.10;;;;;;4934937;28;20086;-84
2021/04/09 04:26:23;;;;;;;19.23;9.18;;;4.80;76.60;;;;;;4937477;29;20123;-84
2021/04/09 04:28:49;;;;;;;20.02;10.07;;;4.80;76.70;;;;;;4941096;28;20031;-84
2021/04/09 04:31:15;;;;;;;17.33;9.52;;;4.80;76.80;;;;;;4940980;29;20037;-84
2021/04/09 04:33:40;;;;;;;18.58;10.10;;;4.80;76.90;;;;;;4933406;29;20105;-84
2021/04/09 04:36:06;;;;;;;14.00;9.05;;;4.70;77.00;;;;;;4932281;29;20503;-84
2021/04/09 04:38:32;;;;;;;16.83;9.52;;;4.70;77.00;;;;;;4941476;28;20110;-85
2021/04/09 04:40:58;;;;;;;16.75;9.50;;;4.70;77.10;;;;;;4948511;28;20070;-84
2021/04/09 04:43:24;;;;;;;18.70;9.98;;;4.70;77.10;;;;;;4966217;28;20409;-84
2021/04/09 04:45:49;;;;;;;14.77;8.48;;;4.70;77.10;;;;;;4936481;29;20088;-84
2021/04/09 04:48:15;;;;;;;17.20;9.30;;;4.70;77.10;;;;;;4948001;28;20027;-85
2021/04/09 04:50:41;;;;;;;15.27;9.32;;;4.60;77.10;;;;;;4945267;29;20483;-84
2021/04/09 04:53:07;;;;;;;19.67;9.70;;;4.70;77.20;;;;;;4933536;28;20040;-84
2021/04/09 04:55:33;;;;;;;18.80;8.75;;;4.70;77.20;;;;;;4945400;28;20031;-85
2021/04/09 04:57:58;;;;;;;22.40;9.65;;;4.70;77.10;;;;;;4943243;29;20080;-84
2021/04/09 05:00:25;;;;;;;17.92;9.18;;;4.70;77.10;;;;;;4939394;28;20224;-85
2021/04/09 05:02:50;;;;;;;17.35;8.15;;;4.70;77.10;;;;;;4940288;29;20507;-84
2021/04/09 05:05:16;;;;;;;18.33;9.00;;;4.70;77.10;;;;;;4951386;28;20035;-84
2021/04/09 05:07:42;;;;;;;17.23;8.68;;;4.70;77.10;;;;;;4940735;28;20028;-84
2021/04/09 05:10:08;;;;;;;17.25;8.70;;;4.70;77.10;;;;;;4936178;28;20649;-84
2021/04/09 05:12:34;;;;;;;14.88;7.82;;;4.70;77.10;;;;;;4947462;28;20030;-84
2021/04/09 05:15:00;;;;;;;17.73;8.57;;;4.80;77.00;;;;;;4945308;28;20032;-84
2021/04/09 05:17:26;;;;;;;18.20;8.52;;;4.80;77.00;;;;;;4929168;28;20394;-84
2021/04/09 05:19:52;;;;;;;17.60;9.05;;;4.80;76.90;;;;;;4937950;28;20657;-84
2021/04/09 05:22:18;;;;;;;16.52;8.77;;;4.80;77.00;;;;;;4946582;28;20449;-84
2021/04/09 05:24:46;;;;;;;14.27;9.00;;;4.80;77.10;;;;;;4940652;28;20027;-84
2021/04/09 05:27:11;;;;;;;17.80;8.07;;;4.80;77.10;;;;;;4942919;29;20057;-84
2021/04/09 05:29:37;;;;;;;16.80;8.52;;;4.80;77.20;;;;;;4957060;28;20032;-84
2021/04/09 05:32:10;;;;;;;18.42;9.35;;;4.80;77.30;;;;;;4944669;29;20023;-84
2021/04/09 05:34:37;;;;;;;18.67;9.23;;;4.90;77.50;;;;;;4960421;28;20430;-84
2021/04/09 05:37:03;;;;;;;14.63;8.98;;;4.80;77.50;;;;;;4948779;28;20073;-84
2021/04/09 05:39:28;;;;;;;16.38;9.02;;;4.80;77.50;;;;;;4942608;28;20043;-84
2021/04/09 05:41:54;;;;;;;12.30;8.55;;;4.80;77.60;;;;;;4948742;29;20026;-84
2021/04/09 05:44:21;;;;;;;15.52;8.52;;;4.80;77.70;;;;;;4947050;29;20031;-84
2021/04/09 05:46:47;;;;;;;15.70;8.93;;;4.80;77.80;;;;;;4943138;28;20019;-84
2021/04/09 05:49:12;;;;;;;12.80;7.72;;;4.80;77.90;;;;;;4941066;28;20028;-84
2021/04/09 05:51:38;;;;;;;14.30;8.23;;;4.80;77.80;;;;;;4941908;29;20031;-84
2021/04/09 05:54:04;;;;;;;18.10;8.75;;;4.90;77.90;;;;;;4943884;28;20122;-85
2021/04/09 05:56:29;;;;;;;17.38;9.07;;;4.90;77.90;;;;;;4946235;28;20031;-85
2021/04/09 05:58:55;;;;;;;14.88;8.95;;;4.90;77.90;;;;;;4944624;29;20053;-85
2021/04/09 06:01:21;;;;;;;16.98;8.50;;;5.00;78.10;;;;;;4947397;28;20040;-85
2021/04/09 06:03:50;;;;;;;18.67;9.13;;;5.00;78.00;;;;;;4936000;29;20031;-84
2021/04/09 06:06:15;;;;;;;15.40;8.35;;;5.10;77.90;;;;;;4938664;28;20146;-84
2021/04/09 06:08:41;;;;;;;16.33;8.63;;;5.20;77.70;;;;;;4943686;28;20158;-84
2021/04/09 06:11:07;;;;;;;19.15;8.32;;;5.30;77.60;;;;;;4944435;28;20107;-84
2021/04/09 06:13:33;;;;;;;18.20;9.40;;;5.50;77.60;;;;;;4953500;28;20509;-84
2021/04/09 06:15:59;;;;;;;19.35;9.55;;;5.50;77.50;;;;;;4936578;28;20110;-85
2021/04/09 06:18:24;;;;;;;19.00;8.85;;;5.60;77.20;;;;;;4946902;29;20388;-84
2021/04/09 06:20:50;;;;;;;17.05;8.85;;;5.70;77.10;;;;;;4946143;28;20067;-84
2021/04/09 06:23:19;;;;;;;16.40;9.30;;;5.90;77.00;;;;;;4948942;29;20028;-86
2021/04/09 06:25:45;;;;;;;16.10;9.00;;;5.90;76.70;;;;;;4936609;29;20062;-84
2021/04/09 06:28:10;;;;;;;19.05;8.98;;;6.00;76.50;;;;;;4939756;28;20396;-85
2021/04/09 06:30:36;;;;;;;14.55;8.00;;;6.00;76.20;;;;;;4939261;28;20237;-85
2021/04/09 06:33:02;;;;;;;14.70;8.55;;;6.20;75.80;;;;;;4942292;28;20066;-84
2021/04/09 06:35:28;;;;;;;17.92;8.93;;;6.20;75.60;;;;;;4949708;28;20114;-85
2021/04/09 06:37:53;;;;;;;13.85;8.43;;;6.20;75.40;;;;;;4949198;28;20055;-85
2021/04/09 06:40:19;;;;;;;17.13;8.65;;;6.30;75.60;;;;;;4945006;28;20046;-84
2021/04/09 06:42:45;;;;;;;12.57;8.50;;;6.40;75.60;;;;;;4954232;28;20118;-84
2021/04/09 06:45:12;;;;;;;16.10;8.38;;;6.50;75.50;;;;;;4937910;28;20118;-84
2021/04/09 06:47:37;;;;;;;15.93;8.95;;;6.50;75.30;;;;;;4942203;28;20035;-85
2021/04/09 06:50:04;;;;;;;15.82;8.45;;;6.60;74.90;;;;;;4950403;29;20036;-84
2021/04/09 06:52:30;;;;;;;14.60;8.85;;;6.70;74.50;;;;;;4945450;29;20031;-84
2021/04/09 06:54:59;;;;;;;16.73;8.50;;;6.70;74.40;;;;;;4955908;28;20041;-84
2021/04/09 06:57:25;;;;;;;16.77;8.38;;;6.70;74.40;;;;;;4951512;28;20368;-84
2021/04/09 06:59:52;;;;;;;18.27;9.13;;;6.80;74.40;;;;;;4944222;28;20123;-84
2021/04/09 07:02:18;;;;;;;15.23;8.57;;;6.80;74.00;;;;;;4945384;29;20039;-81
2021/04/09 07:04:47;;;;;;;13.35;8.95;;;6.80;73.80;;;;;;4945741;28;20048;-83
2021/04/09 07:07:17;;;;;;;14.35;8.07;;;6.90;73.60;;;;;;4953490;28;20024;-83
2021/04/09 07:09:44;;;;;;;13.20;8.18;;;7.00;73.60;;;;;;4952910;29;20034;-84
2021/04/09 07:12:21;;;;;;;15.23;9.13;;;7.10;73.60;;;;;;4951718;29;20073;-84
2021/04/09 07:14:51;;;;;;;17.58;9.05;;;7.30;73.60;;;;;;4949667;28;20024;-85
2021/04/09 07:17:34;;;;;;;14.52;8.13;;;7.50;73.00;;;;;;4948944;29;20166;-83
2021/04/09 07:20:29;;;;;;;22.20;8.80;;;7.70;72.30;;;;;;4946040;29;20047;-84
2021/04/09 07:22:56;;;;;;;16.17;7.90;;;7.80;71.30;;;;;;4947559;29;20111;-83
2021/04/09 07:25:23;;;;;;;11.32;7.32;;;7.80;71.10;;;;;;4940975;29;20031;-83
2021/04/09 07:27:51;;;;;;;12.68;8.10;;;7.80;70.90;;;;;;4949286;28;20036;-84
2021/04/09 07:30:25;;;;;;;15.50;8.32;;;7.90;70.70;;;;;;4949655;28;20023;-84
2021/04/09 07:32:51;;;;;;;14.32;7.65;;;7.90;70.90;;;;;;4952596;29;20040;-84
2021/04/09 07:35:17;;;;;;;11.63;7.47;;;7.90;70.50;;;;;;4959792;28;20032;-84
2021/04/09 07:37:57;;;;;;;11.05;6.93;;;7.90;70.90;;;;;;4948891;28;20166;-83
2021/04/09 07:40:30;;;;;;;11.60;7.15;;;8.10;71.10;;;;;;4952769;28;20050;-83
2021/04/09 07:42:57;;;;;;;15.10;7.80;;;8.20;70.70;;;;;;4940532;28;20038;-83
2021/04/09 07:45:24;;;;;;;13.18;7.38;;;8.30;70.10;;;;;;4940930;29;20028;-83
2021/04/09 07:48:06;;;;;;;11.57;6.30;;;8.50;70.10;;;;;;4943069;29;20034;-83
2021/04/09 07:50:42;;;;;;;11.70;6.80;;;8.60;70.40;;;;;;4934891;29;20066;-84
2021/04/09 07:53:16;;;;;;;13.82;6.32;;;8.70;69.70;;;;;;4940144;28;20035;-84
2021/04/09 07:55:41;;;;;;;13.52;8.10;;;8.80;69.30;;;;;;4941817;29;20034;-84
2021/04/09 07:58:40;;;;;;;12.38;6.97;;;8.80;69.60;;;;;;4942564;28;20027;-84
2021/04/09 08:01:26;;;;;;;15.23;7.00;;;9.00;69.30;;;;;;4910887;29;20043;-83
2021/04/09 08:03:52;;;;;;;11.23;7.07;;;9.10;68.50;;;;;;4937884;28;20074;-83
2021/04/09 08:06:18;;;;;;;10.23;6.43;;;9.10;68.40;;;;;;4939420;29;20054;-84
2021/04/09 08:08:46;;;;;;;12.75;6.20;;;9.20;67.80;;;;;;4938807;28;20452;-84
2021/04/09 08:11:28;;;;;;;13.30;7.47;;;9.20;67.80;;;;;;4944790;28;20118;-84
2021/04/09 08:14:10;;;;;;;9.43;5.77;;;9.30;67.50;;;;;;4939991;28;20054;-83
2021/04/09 08:16:40;;;;;;;12.88;6.10;;;9.30;66.90;;;;;;4939248;28;20315;-83
2021/04/09 08:19:13;;;;;;;11.45;6.45;;;9.30;67.10;;;;;;4937266;28;20109;-84
2021/04/09 08:21:39;;;;;;;;;;;9.30;67.60;;;;;;4938913;29;20039;-84
2021/04/09 08:24:07;;;;;;;10.57;6.30;;;9.50;67.90;;;;;;4952102;28;20009;-83
2021/04/09 08:26:33;;;;;;;13.57;6.20;;;9.50;67.10;;;;;;4937720;28;20034;-83
2021/04/09 08:28:59;;;;;;;12.25;5.25;;;9.60;67.30;;;;;;4937738;28;20031;-83
2021/04/09 08:31:25;;;;;;;12.18;6.15;;;9.70;67.70;;;;;;4942157;28;20505;-84
2021/04/09 08:33:51;;;;;;;10.05;5.88;;;9.80;67.50;;;;;;4947432;28;20043;-83
2021/04/09 08:36:17;;;;;;;10.98;5.45;;;9.90;67.40;;;;;;4949310;28;20443;-84
2021/04/09 08:38:43;;;;;;;9.10;5.60;;;9.90;67.10;;;;;;4940050;28;20063;-82
2021/04/09 08:41:11;;;;;;;11.43;5.78;;;10.00;67.20;;;;;;4955226;28;20074;-84
2021/04/09 08:43:37;;;;;;;11.40;6.15;;;10.10;66.30;;;;;;4935682;29;20111;-84
2021/04/09 08:46:05;;;;;;;10.55;5.88;;;10.00;65.90;;;;;;4941824;29;20083;-83
2021/04/09 08:48:32;;;;;;;8.88;5.25;;;9.90;66.00;;;;;;4937446;29;20086;-83
2021/04/09 08:50:58;;;;;;;7.97;4.88;;;9.90;66.20;;;;;;4938263;29;20058;-84
2021/04/09 08:53:29;;;;;;;10.02;5.85;;;10.00;66.20;;;;;;4941127;29;20077;-84
2021/04/09 08:55:55;;;;;;;8.63;6.10;;;10.10;66.50;;;;;;4938748;28;20028;-84
2021/04/09 08:58:20;;;;;;;10.02;5.90;;;10.10;66.50;;;;;;4938403;28;20024;-83
2021/04/09 09:00:49;;;;;;;9.45;5.20;;;10.20;65.90;;;;;;4936519;28;22019;-84
2021/04/09 09:03:29;;;;;;;9.07;5.47;;;10.10;66.00;;;;;;4938033;29;20032;-83
2021/04/09 09:06:00;;;;;;;10.27;5.63;;;10.10;65.80;;;;;;4942821;28;20031;-84
2021/04/09 09:08:53;;;;;;;9.32;5.28;;;10.20;66.50;;;;;;4947771;28;20023;-84
2021/04/09 09:11:48;;;;;;;7.47;4.43;;;10.30;66.10;;;;;;4946802;28;20039;-84
2021/04/09 09:14:33;;;;;;;6.88;4.97;;;10.50;66.40;;;;;;4939617;29;20038;-84
2021/04/09 09:17:20;;;;;;;8.57;5.00;;;10.70;66.10;;;;;;4946484;28;20027;-84
2021/04/09 09:19:48;;;;;;;7.57;4.85;;;10.80;65.60;;;;;;4949797;29;20055;-83
2021/04/09 09:22:14;;;;;;;6.10;4.03;;;10.90;65.20;;;;;;4941916;29;20031;-84
2021/04/09 09:25:02;;;;;;;9.65;4.78;;;10.90;65.40;;;;;;4940410;29;20036;-83
2021/04/09 09:27:48;;;;;;;7.72;4.65;;;11.00;64.70;;;;;;4937619;29;20035;-83
2021/04/09 09:30:36;;;;;;;8.68;4.70;;;11.00;64.40;;;;;;4944404;29;20063;-83
2021/04/09 09:33:23;;;;;;;7.82;4.55;;;11.00;64.10;;;;;;4942989;28;20071;-84
2021/04/09 09:36:09;;;;;;;6.25;4.10;;;10.90;64.20;;;;;;4936759;29;20032;-83
2021/04/09 09:38:53;;;;;;;7.50;4.45;;;10.80;64.50;;;;;;4964637;28;20119;-84
2021/04/09 09:41:43;;;;;;;8.43;5.28;;;10.90;65.00;;;;;;4944279;28;20028;-85
2021/04/09 09:44:33;;;;;;;9.32;5.05;;;10.90;64.60;;;;;;4941816;28;20023;-85
2021/04/09 09:47:16;;;;;;;11.48;5.32;;;10.90;64.40;;;;;;4943890;28;20029;-84
2021/04/09 09:50:00;;;;;;;10.25;5.00;;;10.80;64.80;;;;;;4938842;29;20110;-85
2021/04/09 09:52:55;;;;;;;9.43;5.10;;;10.90;65.30;;;;;;4936103;29;20024;-83
2021/04/09 09:55:28;;;;;;;11.75;5.00;;;11.10;64.80;;;;;;4936765;29;20028;-83
2021/04/09 09:57:54;;;;;;;6.45;3.67;;;11.20;64.40;;;;;;4938349;29;20090;-83
2021/04/09 10:00:31;;;;;;;8.70;3.78;;;11.20;63.60;;;;;;4942228;28;20494;-83
2021/04/09 10:03:29;;;;;;;8.15;4.05;;;11.30;63.70;;;;;;4939712;29;20078;-84
2021/04/09 10:06:08;;;;;;;6.57;3.97;;;11.20;62.90;;;;;;4943451;28;20023;-84
2021/04/09 10:08:36;;;;;;;9.98;4.47;;;11.10;63.80;;;;;;4953841;28;20028;-84
2021/04/09 10:11:08;;;;;;;7.18;3.50;;;11.10;63.40;;;;;;4945094;28;20039;-83
2021/04/09 10:13:41;;;;;;;10.25;4.70;;;11.10;64.30;;;;;;4938048;28;20058;-83
2021/04/09 10:16:18;;;;;;;8.25;3.80;;;11.10;64.40;;;;;;4940811;28;20034;-83
2021/04/09 10:18:51;;;;;;;8.18;3.42;;;11.30;64.30;;;;;;4941689;28;20111;-83
2021/04/09 10:21:18;;;;;;;7.00;3.78;;;11.40;62.90;;;;;;4939362;28;20146;-84
2021/04/09 10:23:46;;;;;;;7.40;4.78;;;11.30;62.80;;;;;;4944093;28;20030;-84
2021/04/09 10:26:12;;;;;;;9.55;4.18;;;11.40;63.20;;;;;;4941773;28;20039;-84
2021/04/09 10:28:40;;;;;;;10.93;4.55;;;11.50;63.40;;;;;;4940702;28;20044;-83
2021/04/09 10:31:10;;;;;;;6.68;4.05;;;11.70;63.50;;;;;;4945362;28;20165;-84
2021/04/09 10:33:44;;;;;;;7.05;4.53;;;11.70;62.60;;;;;;4933341;28;20051;-83
2021/04/09 10:36:18;;;;;;;8.38;4.07;;;11.80;63.00;;;;;;4941152;29;20395;-84
2021/04/09 10:38:46;;;;;;;8.77;4.03;;;11.90;63.40;;;;;;4939447;28;20035;-84
2021/04/09 10:41:22;;;;;;;5.90;3.70;;;11.90;62.60;;;;;;4940572;29;20061;-84
2021/04/09 10:43:56;;;;;;;9.68;3.80;;;11.90;61.70;;;;;;4939518;28;20031;-84
2021/04/09 10:46:24;;;;;;;6.78;4.20;;;11.70;61.70;;;;;;4942906;28;20549;-84
2021/04/09 10:48:50;;;;;;;7.10;3.53;;;11.70;63.00;;;;;;4933962;28;20047;-84
2021/04/09 10:51:16;;;;;;;6.90;3.65;;;11.70;62.70;;;;;;4939565;28;20039;-85
2021/04/09 10:53:41;;;;;;;11.93;4.00;;;11.70;63.00;;;;;;4947168;29;20030;-84
2021/04/09 10:56:11;;;;;;;7.60;4.07;;;11.70;62.70;;;;;;4940427;28;20399;-84
2021/04/09 10:58:40;;;;;;;5.50;3.20;;;11.80;62.80;;;;;;4938406;29;20054;-84
2021/04/09 11:01:06;;;;;;;6.47;3.50;;;11.90;62.50;;;;;;4942737;28;20031;-84
2021/04/09 11:03:32;;;;;;;3.13;1.83;;;12.00;62.20;;;;;;4939589;28;20035;-84
2021/04/09 11:06:01;;;;;;;4.05;1.95;;;12.20;62.00;;;;;;4935125;28;20031;-84
2021/04/09 11:08:40;;;;;;;8.90;2.90;;;12.30;61.10;;;;;;4944763;29;20038;-83
2021/04/09 11:11:08;;;;;;;6.00;2.20;;;12.30;60.00;;;;;;4943999;28;22808;-83
2021/04/09 11:13:36;;;;;;;5.60;2.38;;;12.50;60.50;;;;;;4937283;29;20502;-83
2021/04/09 11:16:03;;;;;;;2.75;1.77;;;12.50;59.70;;;;;;4952229;28;20070;-83
2021/04/09 11:18:52;;;;;;;2.75;1.60;;;12.50;58.90;;;;;;4942138;29;20082;-83
2021/04/09 11:21:46;;;;;;;6.47;2.20;;;12.50;58.50;;;;;;4945964;28;20045;-83
2021/04/09 11:24:26;;;;;;;6.43;1.70;;;12.60;59.00;;;;;;4942085;29;20034;-83
2021/04/09 11:26:52;;;;;;;6.03;1.73;;;12.70;58.70;;;;;;4940497;29;20036;-83
2021/04/09 11:29:32;;;;;;;3.45;1.27;;;12.90;59.00;;;;;;4941757;28;20629;-83
2021/04/09 11:32:17;;;;;;;4.40;1.58;;;13.20;58.10;;;;;;4942216;29;20039;-84
2021/04/09 11:34:48;;;;;;;3.53;1.60;;;13.30;58.20;;;;;;4935790;29;20023;-83
2021/04/09 11:37:15;;;;;;;4.22;1.30;;;13.40;57.40;;;;;;4940232;29;20110;-84
2021/04/09 11:39:55;;;;;;;3.13;1.38;;;13.30;54.90;;;;;;4948056;28;20036;-84
2021/04/09 11:42:32;;;;;;;2.85;1.63;;;13.00;55.70;;;;;;4952204;29;20092;-83
2021/04/09 11:45:04;;;;;;;3.88;1.80;;;12.90;57.10;;;;;;4939359;29;20027;-84
2021/04/09 11:47:39;;;;;;;3.45;1.13;;;12.90;56.80;;;;;;4955621;28;20398;-83
2021/04/09 11:50:36;;;;;;;3.08;1.00;;;12.90;56.40;;;;;;4937873;29;20150;-84
2021/04/09 11:53:07;;;;;;;2.72;0.88;;;13.00;56.20;;;;;;4956386;28;20043;-84
2021/04/09 11:55:35;;;;;;;3.72;0.70;;;13.20;56.50;;;;;;4954538;28;20031;-84
2021/04/09 11:58:01;;;;;;;4.25;0.80;;;13.30;56.00;;;;;;4937266;29;20043;-84
2021/04/09 12:00:34;;;;;;;2.05;0.60;;;13.20;55.70;;;;;;4945834;29;20050;-84
2021/04/09 12:03:05;;;;;;;3.25;0.80;;;13.20;56.20;;;;;;4939181;28;20023;-84
2021/04/09 12:05:34;;;;;;;2.85;0.55;;;13.30;56.40;;;;;;4941965;29;20035;-84
2021/04/09 12:08:01;;;;;;;3.45;0.52;;;13.30;55.80;;;;;;4940907;28;20035;-85
2021/04/09 12:10:29;;;;;;;1.60;0.80;;;13.30;55.70;;;;;;4939110;28;20070;-84
2021/04/09 12:12:55;;;;;;;3.25;0.70;;;13.40;56.30;;;;;;4944252;28;20039;-84
2021/04/09 12:15:22;;;;;;;4.05;0.60;;;13.50;55.10;;;;;;4944440;29;20027;-85
2021/04/09 12:17:48;;;;;;;3.30;0.75;;;13.50;55.50;;;;;;4939762;29;20039;-84
2021/04/09 12:20:17;;;;;;;3.50;0.68;;;13.40;55.60;;;;;;4954144;28;20035;-84
2021/04/09 12:22:43;;;;;;;1.63;0.60;;;13.30;54.60;;;;;;4937330;29;20051;-82
2021/04/09 12:25:11;;;;;;;2.45;0.80;;;13.30;54.30;;;;;;4949571;28;20062;-86
2021/04/09 12:27:37;;;;;;;1.95;0.60;;;13.20;54.80;;;;;;4936638;28;20031;-85
2021/04/09 12:30:08;;;;;;;1.40;0.50;;;13.30;55.10;;;;;;4939638;28;20031;-85
2021/04/09 12:32:34;;;;;;;2.50;0.70;;;13.40;55.50;;;;;;4949900;28;20059;-85
2021/04/09 12:35:00;;;;;;;2.63;0.90;;;13.60;55.30;;;;;;4937987;29;20027;-85
2021/04/09 12:37:26;;;;;;;3.90;0.70;;;13.70;54.80;;;;;;4939727;28;20159;-85
2021/04/09 12:39:52;;;;;;;1.75;0.75;;;13.90;54.30;;;;;;4955153;28;20047;-85
2021/04/09 12:42:19;;;;;;;3.33;0.77;;;14.00;55.00;;;;;;4946282;28;20449;-84
2021/04/09 12:44:45;;;;;;;1.80;0.65;;;14.20;52.90;;;;;;4954925;28;20030;-85
2021/04/09 12:47:11;;;;;;;1.73;0.60;;;14.20;52.50;;;;;;4949762;28;20084;-84
2021/04/09 12:49:37;;;;;;;1.98;0.93;;;14.30;53.50;;;;;;4941455;29;22827;-85
2021/04/09 12:52:04;;;;;;;2.15;0.82;;;14.30;53.70;;;;;;4953636;28;20057;-84
2021/04/09 12:54:30;;;;;;;2.00;1.00;;;14.30;54.20;;;;;;4938094;28;20034;-85
2021/04/09 12:56:55;;;;;;;1.73;1.05;;;14.10;53.10;;;;;;4941278;28;20032;-89
2021/04/09 12:59:22;;;;;;;1.85;0.80;;;13.90;54.00;;;;;;4937846;29;20032;-90